sensor_id;sensor_type;location;lat;lon;timestamp;temperature;humidity
16523;DHT22;19889;52.546;13.348;2023-02-26T00:00:50;2.90;99.90
16523;DHT22;19889;52.546;13.348;2023-02-26T00:03:17;3.00;99.90
16523;DHT22;19889;52.546;13.348;2023-02-26T00:05:44;3.20;99.90
16523;DHT22;19889;52.546;13.348;2023-02-26T00:08:11;2.90;99.90
16523;DHT22;19889;52.546;13.348;2023-02-26T00:10:38;2.90;99.90
16523;DHT22;19889;52.546;13.348;2023-02-26T00:13:05;2.80;99.90
16523;DHT22;19889;52.546;13.348;2023-02-26T00:15:34;2.90;99.90
16523;DHT22;19889;52.546;13.348;2023-02-26T00:18:04;2.90;99.90
16523;DHT22;19889;52.546;13.348;2023-02-26T00:20:32;2.90;99.90
16523;DHT22;19889;52.546;13.348;2023-02-26T00:23:00;2.90;99.90
16523;DHT22;19889;52.546;13.348;2023-02-26T00:25:27;2.90;99.90
16523;DHT22;19889;52.546;13.348;2023-02-26T00:27:55;2.90;99.90
16523;DHT22;19889;52.546;13.348;2023-02-26T00:30:22;2.90;99.90
16523;DHT22;19889;52.546;13.348;2023-02-26T00:32:51;2.90;99.90
16523;DHT22;19889;52.546;13.348;2023-02-26T00:35:19;2.90;99.90
16523;DHT22;19889;52.546;13.348;2023-02-26T00:38:00;2.90;99.90
16523;DHT22;19889;52.546;13.348;2023-02-26T00:40:34;2.90;99.90
16523;DHT22;19889;52.546;13.348;2023-02-26T00:43:02;2.90;99.90
16523;DHT22;19889;52.546;13.348;2023-02-26T00:45:30;2.90;99.90
16523;DHT22;19889;52.546;13.348;2023-02-26T00:48:15;2.90;99.90
16523;DHT22;19889;52.546;13.348;2023-02-26T00:50:58;2.90;99.90
16523;DHT22;19889;52.546;13.348;2023-02-26T00:53:29;3.00;99.90
16523;DHT22;19889;52.546;13.348;2023-02-26T00:55:57;2.90;99.90
16523;DHT22;19889;52.546;13.348;2023-02-26T00:58:25;2.90;99.90
16523;DHT22;19889;52.546;13.348;2023-02-26T01:00:51;3.00;99.90
16523;DHT22;19889;52.546;13.348;2023-02-26T01:03:20;2.90;99.90
16523;DHT22;19889;52.546;13.348;2023-02-26T01:05:47;3.60;99.90
16523;DHT22;19889;52.546;13.348;2023-02-26T01:08:21;2.90;99.90
16523;DHT22;19889;52.546;13.348;2023-02-26T01:10:49;2.90;99.90
16523;DHT22;19889;52.546;13.348;2023-02-26T01:13:16;2.90;99.90
16523;DHT22;19889;52.546;13.348;2023-02-26T01:15:47;2.90;99.90
16523;DHT22;19889;52.546;13.348;2023-02-26T01:18:21;2.90;99.90
16523;DHT22;19889;52.546;13.348;2023-02-26T01:20:55;2.90;99.90
16523;DHT22;19889;52.546;13.348;2023-02-26T01:23:24;2.90;99.90
16523;DHT22;19889;52.546;13.348;2023-02-26T01:25:55;2.90;99.90
16523;DHT22;19889;52.546;13.348;2023-02-26T01:28:24;2.90;99.90
16523;DHT22;19889;52.546;13.348;2023-02-26T01:30:54;2.90;99.90
16523;DHT22;19889;52.546;13.348;2023-02-26T01:33:29;2.90;99.90
16523;DHT22;19889;52.546;13.348;2023-02-26T01:36:02;3.00;99.90
16523;DHT22;19889;52.546;13.348;2023-02-26T01:38:37;2.90;99.90
16523;DHT22;19889;52.546;13.348;2023-02-26T01:41:20;3.00;99.90
16523;DHT22;19889;52.546;13.348;2023-02-26T01:43:58;3.00;99.90
16523;DHT22;19889;52.546;13.348;2023-02-26T01:46:30;2.90;99.90
16523;DHT22;19889;52.546;13.348;2023-02-26T01:49:00;3.20;99.90
16523;DHT22;19889;52.546;13.348;2023-02-26T01:51:44;3.00;99.90
16523;DHT22;19889;52.546;13.348;2023-02-26T01:54:13;3.00;99.90
16523;DHT22;19889;52.546;13.348;2023-02-26T01:56:41;2.90;99.90
16523;DHT22;19889;52.546;13.348;2023-02-26T01:59:10;3.00;99.90
16523;DHT22;19889;52.546;13.348;2023-02-26T02:01:39;2.90;99.90
16523;DHT22;19889;52.546;13.348;2023-02-26T02:04:11;3.00;99.90
16523;DHT22;19889;52.546;13.348;2023-02-26T02:06:39;2.90;99.90
16523;DHT22;19889;52.546;13.348;2023-02-26T02:09:07;2.90;99.90
16523;DHT22;19889;52.546;13.348;2023-02-26T02:11:36;2.90;99.90
16523;DHT22;19889;52.546;13.348;2023-02-26T02:14:11;3.00;99.90
16523;DHT22;19889;52.546;13.348;2023-02-26T02:16:47;3.00;99.90
16523;DHT22;19889;52.546;13.348;2023-02-26T02:22:45;3.00;99.90
16523;DHT22;19889;52.546;13.348;2023-02-26T02:25:34;3.00;99.90
16523;DHT22;19889;52.546;13.348;2023-02-26T02:28:11;3.10;99.90
16523;DHT22;19889;52.546;13.348;2023-02-26T02:31:03;3.00;99.90
16523;DHT22;19889;52.546;13.348;2023-02-26T02:33:34;3.00;99.90
16523;DHT22;19889;52.546;13.348;2023-02-26T02:36:05;2.90;99.90
16523;DHT22;19889;52.546;13.348;2023-02-26T02:38:37;3.00;99.90
16523;DHT22;19889;52.546;13.348;2023-02-26T02:41:10;3.00;99.90
16523;DHT22;19889;52.546;13.348;2023-02-26T02:43:40;3.00;99.90
16523;DHT22;19889;52.546;13.348;2023-02-26T02:46:11;3.00;99.90
16523;DHT22;19889;52.546;13.348;2023-02-26T02:48:46;2.90;99.90
16523;DHT22;19889;52.546;13.348;2023-02-26T02:51:20;2.90;99.90
16523;DHT22;19889;52.546;13.348;2023-02-26T02:53:52;2.90;99.90
16523;DHT22;19889;52.546;13.348;2023-02-26T02:56:24;2.90;99.90
16523;DHT22;19889;52.546;13.348;2023-02-26T02:58:55;2.90;99.90
16523;DHT22;19889;52.546;13.348;2023-02-26T03:01:26;2.90;99.90
16523;DHT22;19889;52.546;13.348;2023-02-26T03:03:57;2.90;99.90
16523;DHT22;19889;52.546;13.348;2023-02-26T03:06:25;2.90;99.90
16523;DHT22;19889;52.546;13.348;2023-02-26T03:08:53;3.00;99.90
16523;DHT22;19889;52.546;13.348;2023-02-26T03:11:20;2.70;99.90
16523;DHT22;19889;52.546;13.348;2023-02-26T03:13:48;2.90;99.90
16523;DHT22;19889;52.546;13.348;2023-02-26T03:16:39;2.90;99.90
16523;DHT22;19889;52.546;13.348;2023-02-26T03:19:22;2.90;99.90
16523;DHT22;19889;52.546;13.348;2023-02-26T03:22:00;2.90;99.90
16523;DHT22;19889;52.546;13.348;2023-02-26T03:24:53;2.90;99.90
16523;DHT22;19889;52.546;13.348;2023-02-26T03:27:25;2.90;99.90
16523;DHT22;19889;52.546;13.348;2023-02-26T03:29:56;4.40;99.90
16523;DHT22;19889;52.546;13.348;2023-02-26T03:32:28;2.90;99.90
16523;DHT22;19889;52.546;13.348;2023-02-26T03:35:00;2.80;99.90
16523;DHT22;19889;52.546;13.348;2023-02-26T03:37:34;3.30;99.90
16523;DHT22;19889;52.546;13.348;2023-02-26T03:40:06;3.70;99.90
16523;DHT22;19889;52.546;13.348;2023-02-26T03:42:38;2.80;99.90
16523;DHT22;19889;52.546;13.348;2023-02-26T03:45:09;2.80;99.90
16523;DHT22;19889;52.546;13.348;2023-02-26T03:47:40;2.80;99.90
16523;DHT22;19889;52.546;13.348;2023-02-26T03:50:13;2.80;99.90
16523;DHT22;19889;52.546;13.348;2023-02-26T03:52:49;3.70;99.90
16523;DHT22;19889;52.546;13.348;2023-02-26T03:55:46;2.80;99.90
16523;DHT22;19889;52.546;13.348;2023-02-26T03:58:29;2.80;99.90
16523;DHT22;19889;52.546;13.348;2023-02-26T04:01:20;2.80;99.90
16523;DHT22;19889;52.546;13.348;2023-02-26T04:03:54;2.80;99.90
16523;DHT22;19889;52.546;13.348;2023-02-26T04:06:23;2.80;99.90
16523;DHT22;19889;52.546;13.348;2023-02-26T04:08:51;2.70;99.90
16523;DHT22;19889;52.546;13.348;2023-02-26T04:11:20;2.80;99.90
16523;DHT22;19889;52.546;13.348;2023-02-26T04:13:48;2.60;99.90
16523;DHT22;19889;52.546;13.348;2023-02-26T04:16:15;2.80;99.90
16523;DHT22;19889;52.546;13.348;2023-02-26T04:18:44;2.70;99.90
16523;DHT22;19889;52.546;13.348;2023-02-26T04:21:13;2.80;99.90
16523;DHT22;19889;52.546;13.348;2023-02-26T04:23:40;2.70;99.90
16523;DHT22;19889;52.546;13.348;2023-02-26T04:26:08;3.60;99.90
16523;DHT22;19889;52.546;13.348;2023-02-26T04:28:38;2.80;99.90
16523;DHT22;19889;52.546;13.348;2023-02-26T04:31:05;2.70;99.90
16523;DHT22;19889;52.546;13.348;2023-02-26T04:33:32;2.70;99.90
16523;DHT22;19889;52.546;13.348;2023-02-26T04:36:00;2.50;99.90
16523;DHT22;19889;52.546;13.348;2023-02-26T04:38:28;2.70;99.90
16523;DHT22;19889;52.546;13.348;2023-02-26T04:40:55;2.80;99.90
16523;DHT22;19889;52.546;13.348;2023-02-26T04:43:23;2.70;99.90
16523;DHT22;19889;52.546;13.348;2023-02-26T04:46:16;2.80;99.90
16523;DHT22;19889;52.546;13.348;2023-02-26T04:48:43;2.70;99.90
16523;DHT22;19889;52.546;13.348;2023-02-26T04:51:10;2.70;99.90
16523;DHT22;19889;52.546;13.348;2023-02-26T04:53:39;2.70;99.90
16523;DHT22;19889;52.546;13.348;2023-02-26T04:56:06;2.80;99.90
16523;DHT22;19889;52.546;13.348;2023-02-26T04:58:33;2.80;99.90
16523;DHT22;19889;52.546;13.348;2023-02-26T05:01:06;2.80;99.90
16523;DHT22;19889;52.546;13.348;2023-02-26T05:03:33;3.40;99.90
16523;DHT22;19889;52.546;13.348;2023-02-26T05:06:00;2.80;99.90
16523;DHT22;19889;52.546;13.348;2023-02-26T05:08:27;3.70;99.90
16523;DHT22;19889;52.546;13.348;2023-02-26T05:10:55;2.80;99.90
16523;DHT22;19889;52.546;13.348;2023-02-26T05:13:23;2.80;99.90
16523;DHT22;19889;52.546;13.348;2023-02-26T05:15:52;2.70;99.90
16523;DHT22;19889;52.546;13.348;2023-02-26T05:18:19;2.80;99.90
16523;DHT22;19889;52.546;13.348;2023-02-26T05:20:51;2.70;99.90
16523;DHT22;19889;52.546;13.348;2023-02-26T05:23:18;2.70;99.90
16523;DHT22;19889;52.546;13.348;2023-02-26T05:25:45;2.80;99.90
16523;DHT22;19889;52.546;13.348;2023-02-26T05:28:15;2.80;99.90
16523;DHT22;19889;52.546;13.348;2023-02-26T05:30:42;2.70;99.90
16523;DHT22;19889;52.546;13.348;2023-02-26T05:33:09;2.80;99.90
16523;DHT22;19889;52.546;13.348;2023-02-26T05:35:35;3.30;99.90
16523;DHT22;19889;52.546;13.348;2023-02-26T05:38:03;3.10;99.90
16523;DHT22;19889;52.546;13.348;2023-02-26T05:40:30;2.80;99.90
16523;DHT22;19889;52.546;13.348;2023-02-26T05:42:57;2.80;99.90
16523;DHT22;19889;52.546;13.348;2023-02-26T05:45:25;2.80;99.90
16523;DHT22;19889;52.546;13.348;2023-02-26T05:47:52;2.80;99.90
16523;DHT22;19889;52.546;13.348;2023-02-26T05:50:19;2.80;99.90
16523;DHT22;19889;52.546;13.348;2023-02-26T05:52:46;2.80;99.90
16523;DHT22;19889;52.546;13.348;2023-02-26T05:55:14;2.90;99.90
16523;DHT22;19889;52.546;13.348;2023-02-26T05:57:41;2.80;99.90
16523;DHT22;19889;52.546;13.348;2023-02-26T06:00:10;2.80;99.90
16523;DHT22;19889;52.546;13.348;2023-02-26T06:02:41;2.90;99.90
16523;DHT22;19889;52.546;13.348;2023-02-26T06:05:08;2.90;99.90
16523;DHT22;19889;52.546;13.348;2023-02-26T06:07:35;2.90;99.90
16523;DHT22;19889;52.546;13.348;2023-02-26T06:10:03;2.90;99.90
16523;DHT22;19889;52.546;13.348;2023-02-26T06:12:30;2.90;99.90
16523;DHT22;19889;52.546;13.348;2023-02-26T06:14:57;2.90;99.90
16523;DHT22;19889;52.546;13.348;2023-02-26T06:17:24;2.90;99.90
16523;DHT22;19889;52.546;13.348;2023-02-26T06:19:53;3.00;99.90
16523;DHT22;19889;52.546;13.348;2023-02-26T06:22:20;2.90;99.90
16523;DHT22;19889;52.546;13.348;2023-02-26T06:24:46;2.90;99.90
16523;DHT22;19889;52.546;13.348;2023-02-26T06:27:14;2.90;99.90
16523;DHT22;19889;52.546;13.348;2023-02-26T06:29:41;2.90;99.90
16523;DHT22;19889;52.546;13.348;2023-02-26T06:32:08;2.90;99.90
16523;DHT22;19889;52.546;13.348;2023-02-26T06:34:35;2.90;99.90
16523;DHT22;19889;52.546;13.348;2023-02-26T06:37:03;2.90;99.90
16523;DHT22;19889;52.546;13.348;2023-02-26T06:39:30;3.10;99.90
16523;DHT22;19889;52.546;13.348;2023-02-26T06:41:58;3.00;99.90
16523;DHT22;19889;52.546;13.348;2023-02-26T06:44:25;3.20;99.90
16523;DHT22;19889;52.546;13.348;2023-02-26T06:46:52;3.00;99.90
16523;DHT22;19889;52.546;13.348;2023-02-26T06:49:19;3.00;99.90
16523;DHT22;19889;52.546;13.348;2023-02-26T06:51:46;3.00;99.90
16523;DHT22;19889;52.546;13.348;2023-02-26T06:54:14;3.00;99.90
16523;DHT22;19889;52.546;13.348;2023-02-26T06:56:41;3.00;99.90
16523;DHT22;19889;52.546;13.348;2023-02-26T06:59:08;3.00;99.90
16523;DHT22;19889;52.546;13.348;2023-02-26T07:01:35;3.00;99.90
16523;DHT22;19889;52.546;13.348;2023-02-26T07:04:02;3.00;99.90
16523;DHT22;19889;52.546;13.348;2023-02-26T07:06:29;3.00;99.90
16523;DHT22;19889;52.546;13.348;2023-02-26T07:08:57;3.00;99.90
16523;DHT22;19889;52.546;13.348;2023-02-26T07:11:25;3.00;99.90
16523;DHT22;19889;52.546;13.348;2023-02-26T07:13:52;3.00;99.90
16523;DHT22;19889;52.546;13.348;2023-02-26T07:16:19;3.90;99.90
16523;DHT22;19889;52.546;13.348;2023-02-26T07:18:46;3.00;99.90
16523;DHT22;19889;52.546;13.348;2023-02-26T07:21:13;3.00;99.90
16523;DHT22;19889;52.546;13.348;2023-02-26T07:23:40;3.10;99.90
16523;DHT22;19889;52.546;13.348;2023-02-26T07:26:07;3.00;99.90
16523;DHT22;19889;52.546;13.348;2023-02-26T07:28:36;3.30;99.90
16523;DHT22;19889;52.546;13.348;2023-02-26T07:31:03;2.90;99.90
16523;DHT22;19889;52.546;13.348;2023-02-26T07:33:30;3.00;99.90
16523;DHT22;19889;52.546;13.348;2023-02-26T07:35:59;3.10;99.90
16523;DHT22;19889;52.546;13.348;2023-02-26T07:38:26;3.10;99.90
16523;DHT22;19889;52.546;13.348;2023-02-26T07:40:54;3.00;99.90
16523;DHT22;19889;52.546;13.348;2023-02-26T07:43:22;3.00;99.90
16523;DHT22;19889;52.546;13.348;2023-02-26T07:45:51;3.00;99.90
16523;DHT22;19889;52.546;13.348;2023-02-26T07:48:18;3.00;99.90
16523;DHT22;19889;52.546;13.348;2023-02-26T07:50:46;2.90;99.90
16523;DHT22;19889;52.546;13.348;2023-02-26T07:53:13;2.90;99.90
16523;DHT22;19889;52.546;13.348;2023-02-26T07:55:40;2.90;99.90
16523;DHT22;19889;52.546;13.348;2023-02-26T07:58:07;3.00;99.90
16523;DHT22;19889;52.546;13.348;2023-02-26T08:00:34;3.00;99.90
16523;DHT22;19889;52.546;13.348;2023-02-26T08:03:03;3.10;99.90
16523;DHT22;19889;52.546;13.348;2023-02-26T08:05:29;4.20;99.90
16523;DHT22;19889;52.546;13.348;2023-02-26T08:07:57;3.60;99.90
16523;DHT22;19889;52.546;13.348;2023-02-26T08:10:26;3.20;99.90
16523;DHT22;19889;52.546;13.348;2023-02-26T08:12:54;3.20;99.90
16523;DHT22;19889;52.546;13.348;2023-02-26T08:15:21;3.20;99.90
16523;DHT22;19889;52.546;13.348;2023-02-26T08:17:50;3.60;99.90
16523;DHT22;19889;52.546;13.348;2023-02-26T08:20:19;3.40;99.90
16523;DHT22;19889;52.546;13.348;2023-02-26T08:22:46;3.50;99.90
16523;DHT22;19889;52.546;13.348;2023-02-26T08:25:13;3.50;99.90
16523;DHT22;19889;52.546;13.348;2023-02-26T08:27:40;3.60;99.90
16523;DHT22;19889;52.546;13.348;2023-02-26T08:30:08;3.70;99.90
16523;DHT22;19889;52.546;13.348;2023-02-26T08:32:36;3.90;99.90
16523;DHT22;19889;52.546;13.348;2023-02-26T08:35:07;4.10;99.90
16523;DHT22;19889;52.546;13.348;2023-02-26T08:37:36;4.30;99.90
16523;DHT22;19889;52.546;13.348;2023-02-26T08:40:03;4.50;99.90
16523;DHT22;19889;52.546;13.348;2023-02-26T08:42:31;4.80;99.90
16523;DHT22;19889;52.546;13.348;2023-02-26T08:44:58;5.00;99.90
16523;DHT22;19889;52.546;13.348;2023-02-26T08:47:27;5.10;99.90
16523;DHT22;19889;52.546;13.348;2023-02-26T08:49:54;4.90;99.90
16523;DHT22;19889;52.546;13.348;2023-02-26T08:52:21;4.90;99.90
16523;DHT22;19889;52.546;13.348;2023-02-26T08:54:50;4.80;99.90
16523;DHT22;19889;52.546;13.348;2023-02-26T08:57:17;4.70;99.90
16523;DHT22;19889;52.546;13.348;2023-02-26T08:59:44;4.50;99.90
16523;DHT22;19889;52.546;13.348;2023-02-26T09:02:12;4.40;99.90
16523;DHT22;19889;52.546;13.348;2023-02-26T09:04:39;4.30;99.90
16523;DHT22;19889;52.546;13.348;2023-02-26T09:07:06;4.30;99.90
16523;DHT22;19889;52.546;13.348;2023-02-26T09:09:33;4.10;99.90
16523;DHT22;19889;52.546;13.348;2023-02-26T09:12:02;4.10;99.90
16523;DHT22;19889;52.546;13.348;2023-02-26T09:14:29;4.00;99.90
16523;DHT22;19889;52.546;13.348;2023-02-26T09:16:56;3.90;99.90
16523;DHT22;19889;52.546;13.348;2023-02-26T09:19:23;3.80;99.90
16523;DHT22;19889;52.546;13.348;2023-02-26T09:21:50;3.80;99.90
16523;DHT22;19889;52.546;13.348;2023-02-26T09:24:17;3.80;99.90
16523;DHT22;19889;52.546;13.348;2023-02-26T09:26:44;3.80;99.90
16523;DHT22;19889;52.546;13.348;2023-02-26T09:29:12;4.00;99.90
16523;DHT22;19889;52.546;13.348;2023-02-26T09:31:39;3.70;99.90
16523;DHT22;19889;52.546;13.348;2023-02-26T09:34:06;6.20;99.90
16523;DHT22;19889;52.546;13.348;2023-02-26T09:36:33;3.60;99.90
16523;DHT22;19889;52.546;13.348;2023-02-26T09:39:02;3.80;99.90
16523;DHT22;19889;52.546;13.348;2023-02-26T09:41:31;3.70;99.90
16523;DHT22;19889;52.546;13.348;2023-02-26T09:44:12;3.60;99.90
16523;DHT22;19889;52.546;13.348;2023-02-26T09:46:47;3.60;99.90
16523;DHT22;19889;52.546;13.348;2023-02-26T09:49:25;3.60;99.90
16523;DHT22;19889;52.546;13.348;2023-02-26T09:51:57;3.60;99.90
16523;DHT22;19889;52.546;13.348;2023-02-26T09:54:29;3.70;99.90
16523;DHT22;19889;52.546;13.348;2023-02-26T09:56:59;3.70;99.90
16523;DHT22;19889;52.546;13.348;2023-02-26T09:59:30;3.70;99.90
16523;DHT22;19889;52.546;13.348;2023-02-26T10:02:02;3.80;99.90
16523;DHT22;19889;52.546;13.348;2023-02-26T10:04:49;4.20;99.90
16523;DHT22;19889;52.546;13.348;2023-02-26T10:07:25;4.20;99.90
16523;DHT22;19889;52.546;13.348;2023-02-26T10:10:03;3.70;99.90
16523;DHT22;19889;52.546;13.348;2023-02-26T10:12:34;3.70;99.90
16523;DHT22;19889;52.546;13.348;2023-02-26T10:15:08;3.70;99.90
16523;DHT22;19889;52.546;13.348;2023-02-26T10:17:44;3.70;99.90
16523;DHT22;19889;52.546;13.348;2023-02-26T10:20:18;3.70;99.90
16523;DHT22;19889;52.546;13.348;2023-02-26T10:22:54;3.80;99.90
16523;DHT22;19889;52.546;13.348;2023-02-26T10:25:27;4.00;99.90
16523;DHT22;19889;52.546;13.348;2023-02-26T10:27:59;3.80;99.90
16523;DHT22;19889;52.546;13.348;2023-02-26T10:30:34;3.80;99.90
16523;DHT22;19889;52.546;13.348;2023-02-26T10:33:07;3.80;99.90
16523;DHT22;19889;52.546;13.348;2023-02-26T10:35:43;3.80;99.90
16523;DHT22;19889;52.546;13.348;2023-02-26T10:38:15;3.90;99.90
16523;DHT22;19889;52.546;13.348;2023-02-26T10:40:48;3.90;99.90
16523;DHT22;19889;52.546;13.348;2023-02-26T10:43:18;3.90;99.90
16523;DHT22;19889;52.546;13.348;2023-02-26T10:45:59;4.00;99.90
16523;DHT22;19889;52.546;13.348;2023-02-26T10:48:40;4.10;99.90
16523;DHT22;19889;52.546;13.348;2023-02-26T10:51:12;4.10;99.90
16523;DHT22;19889;52.546;13.348;2023-02-26T10:53:42;4.10;99.90
16523;DHT22;19889;52.546;13.348;2023-02-26T10:56:14;4.10;99.90
16523;DHT22;19889;52.546;13.348;2023-02-26T10:58:42;4.10;99.90
16523;DHT22;19889;52.546;13.348;2023-02-26T11:01:18;4.00;99.90
16523;DHT22;19889;52.546;13.348;2023-02-26T11:03:47;4.50;99.90
16523;DHT22;19889;52.546;13.348;2023-02-26T11:06:18;4.20;99.90
16523;DHT22;19889;52.546;13.348;2023-02-26T11:08:48;4.20;99.90
16523;DHT22;19889;52.546;13.348;2023-02-26T11:11:35;4.20;99.90
16523;DHT22;19889;52.546;13.348;2023-02-26T11:14:02;4.20;99.90
16523;DHT22;19889;52.546;13.348;2023-02-26T11:16:31;4.50;99.90
16523;DHT22;19889;52.546;13.348;2023-02-26T11:18:59;4.30;99.90
16523;DHT22;19889;52.546;13.348;2023-02-26T11:21:29;4.30;99.90
16523;DHT22;19889;52.546;13.348;2023-02-26T11:23:59;4.30;99.90
16523;DHT22;19889;52.546;13.348;2023-02-26T11:26:31;4.30;99.90
16523;DHT22;19889;52.546;13.348;2023-02-26T11:29:00;4.20;99.90
16523;DHT22;19889;52.546;13.348;2023-02-26T11:31:27;4.20;99.90
16523;DHT22;19889;52.546;13.348;2023-02-26T11:34:01;4.20;99.90
16523;DHT22;19889;52.546;13.348;2023-02-26T11:36:32;4.50;99.90
16523;DHT22;19889;52.546;13.348;2023-02-26T11:39:02;4.10;99.90
16523;DHT22;19889;52.546;13.348;2023-02-26T11:41:35;4.10;99.90
16523;DHT22;19889;52.546;13.348;2023-02-26T11:44:08;4.10;99.90
16523;DHT22;19889;52.546;13.348;2023-02-26T11:46:41;4.00;99.90
16523;DHT22;19889;52.546;13.348;2023-02-26T11:49:13;4.10;99.90
16523;DHT22;19889;52.546;13.348;2023-02-26T11:51:42;4.20;99.90
16523;DHT22;19889;52.546;13.348;2023-02-26T11:54:21;4.30;99.90
16523;DHT22;19889;52.546;13.348;2023-02-26T11:56:48;4.30;99.90
16523;DHT22;19889;52.546;13.348;2023-02-26T11:59:18;4.40;99.90
16523;DHT22;19889;52.546;13.348;2023-02-26T12:01:45;4.30;99.90
16523;DHT22;19889;52.546;13.348;2023-02-26T12:04:18;4.40;99.90
16523;DHT22;19889;52.546;13.348;2023-02-26T12:06:45;4.40;99.90
16523;DHT22;19889;52.546;13.348;2023-02-26T12:09:13;4.40;99.90
16523;DHT22;19889;52.546;13.348;2023-02-26T12:11:50;4.30;99.90
16523;DHT22;19889;52.546;13.348;2023-02-26T12:17:23;4.30;99.90
16523;DHT22;19889;52.546;13.348;2023-02-26T12:20:00;4.40;99.90
16523;DHT22;19889;52.546;13.348;2023-02-26T12:22:48;4.40;99.90
16523;DHT22;19889;52.546;13.348;2023-02-26T12:25:44;4.40;99.90
16523;DHT22;19889;52.546;13.348;2023-02-26T12:28:48;4.40;99.90
16523;DHT22;19889;52.546;13.348;2023-02-26T12:31:32;4.40;99.90
16523;DHT22;19889;52.546;13.348;2023-02-26T12:34:16;4.40;99.90
16523;DHT22;19889;52.546;13.348;2023-02-26T12:37:03;4.30;99.90
16523;DHT22;19889;52.546;13.348;2023-02-26T12:39:41;4.30;99.90
16523;DHT22;19889;52.546;13.348;2023-02-26T12:42:21;4.40;99.90
16523;DHT22;19889;52.546;13.348;2023-02-26T12:45:10;4.30;99.90
16523;DHT22;19889;52.546;13.348;2023-02-26T12:47:46;4.30;99.90
16523;DHT22;19889;52.546;13.348;2023-02-26T12:50:35;4.30;99.90
16523;DHT22;19889;52.546;13.348;2023-02-26T12:56:04;4.40;99.90
16523;DHT22;19889;52.546;13.348;2023-02-26T12:58:56;4.60;99.90
16523;DHT22;19889;52.546;13.348;2023-02-26T13:01:51;4.50;99.90
16523;DHT22;19889;52.546;13.348;2023-02-26T13:04:49;4.50;99.90
16523;DHT22;19889;52.546;13.348;2023-02-26T13:07:32;4.60;99.90
16523;DHT22;19889;52.546;13.348;2023-02-26T13:10:09;4.60;99.90
16523;DHT22;19889;52.546;13.348;2023-02-26T13:12:45;4.60;99.90
16523;DHT22;19889;52.546;13.348;2023-02-26T13:15:24;4.50;99.90
16523;DHT22;19889;52.546;13.348;2023-02-26T13:18:01;4.50;99.90
16523;DHT22;19889;52.546;13.348;2023-02-26T13:20:30;4.50;99.90
16523;DHT22;19889;52.546;13.348;2023-02-26T13:23:02;4.40;99.90
16523;DHT22;19889;52.546;13.348;2023-02-26T13:25:35;4.40;99.90
16523;DHT22;19889;52.546;13.348;2023-02-26T13:28:10;4.30;99.90
16523;DHT22;19889;52.546;13.348;2023-02-26T13:30:43;4.40;99.90
16523;DHT22;19889;52.546;13.348;2023-02-26T13:33:17;4.50;99.90
16523;DHT22;19889;52.546;13.348;2023-02-26T13:35:44;5.20;99.90
16523;DHT22;19889;52.546;13.348;2023-02-26T13:38:17;4.70;99.90
16523;DHT22;19889;52.546;13.348;2023-02-26T13:40:55;4.60;99.90
16523;DHT22;19889;52.546;13.348;2023-02-26T13:43:35;4.60;99.90
16523;DHT22;19889;52.546;13.348;2023-02-26T13:46:22;4.60;99.90
16523;DHT22;19889;52.546;13.348;2023-02-26T13:48:57;4.80;99.90
16523;DHT22;19889;52.546;13.348;2023-02-26T13:51:30;4.70;99.90
16523;DHT22;19889;52.546;13.348;2023-02-26T13:54:00;4.90;99.90
16523;DHT22;19889;52.546;13.348;2023-02-26T13:56:53;4.70;99.90
16523;DHT22;19889;52.546;13.348;2023-02-26T13:59:46;4.60;99.90
16523;DHT22;19889;52.546;13.348;2023-02-26T14:02:44;4.70;99.90
16523;DHT22;19889;52.546;13.348;2023-02-26T14:08:24;4.50;99.90
16523;DHT22;19889;52.546;13.348;2023-02-26T14:11:01;4.50;99.90
16523;DHT22;19889;52.546;13.348;2023-02-26T14:13:35;4.60;99.90
16523;DHT22;19889;52.546;13.348;2023-02-26T14:16:10;4.40;99.90
16523;DHT22;19889;52.546;13.348;2023-02-26T14:18:41;4.50;99.90
16523;DHT22;19889;52.546;13.348;2023-02-26T14:21:37;4.50;99.90
16523;DHT22;19889;52.546;13.348;2023-02-26T14:24:12;4.50;99.90
16523;DHT22;19889;52.546;13.348;2023-02-26T14:26:45;4.50;99.90
16523;DHT22;19889;52.546;13.348;2023-02-26T14:29:19;4.60;99.90
16523;DHT22;19889;52.546;13.348;2023-02-26T14:31:54;4.40;99.90
16523;DHT22;19889;52.546;13.348;2023-02-26T14:34:24;4.50;99.90
16523;DHT22;19889;52.546;13.348;2023-02-26T14:36:54;4.50;99.90
16523;DHT22;19889;52.546;13.348;2023-02-26T14:39:26;4.50;99.90
16523;DHT22;19889;52.546;13.348;2023-02-26T14:41:58;5.00;99.90
16523;DHT22;19889;52.546;13.348;2023-02-26T14:44:29;4.40;99.90
16523;DHT22;19889;52.546;13.348;2023-02-26T14:46:57;4.40;99.90
16523;DHT22;19889;52.546;13.348;2023-02-26T14:49:27;4.30;99.90
16523;DHT22;19889;52.546;13.348;2023-02-26T14:52:06;4.40;99.90
16523;DHT22;19889;52.546;13.348;2023-02-26T14:54:49;4.90;99.90
16523;DHT22;19889;52.546;13.348;2023-02-26T14:57:26;4.50;99.90
16523;DHT22;19889;52.546;13.348;2023-02-26T15:00:05;4.50;99.90
16523;DHT22;19889;52.546;13.348;2023-02-26T15:02:57;4.40;99.90
16523;DHT22;19889;52.546;13.348;2023-02-26T15:05:34;4.40;99.90
16523;DHT22;19889;52.546;13.348;2023-02-26T15:08:16;4.40;99.90
16523;DHT22;19889;52.546;13.348;2023-02-26T15:11:03;4.40;99.90
16523;DHT22;19889;52.546;13.348;2023-02-26T15:13:56;4.40;99.90
16523;DHT22;19889;52.546;13.348;2023-02-26T15:16:39;4.40;99.90
16523;DHT22;19889;52.546;13.348;2023-02-26T15:19:23;3.60;99.90
16523;DHT22;19889;52.546;13.348;2023-02-26T15:22:02;4.50;99.90
16523;DHT22;19889;52.546;13.348;2023-02-26T15:24:31;4.60;99.90
16523;DHT22;19889;52.546;13.348;2023-02-26T15:27:01;4.60;99.90
16523;DHT22;19889;52.546;13.348;2023-02-26T15:29:31;4.60;99.90
16523;DHT22;19889;52.546;13.348;2023-02-26T15:32:05;4.60;99.90
16523;DHT22;19889;52.546;13.348;2023-02-26T15:34:41;4.60;99.90
16523;DHT22;19889;52.546;13.348;2023-02-26T15:37:18;4.50;99.90
16523;DHT22;19889;52.546;13.348;2023-02-26T15:39:48;4.50;99.90
16523;DHT22;19889;52.546;13.348;2023-02-26T15:42:15;4.50;99.90
16523;DHT22;19889;52.546;13.348;2023-02-26T15:44:44;4.50;99.90
16523;DHT22;19889;52.546;13.348;2023-02-26T15:47:14;4.60;99.90
16523;DHT22;19889;52.546;13.348;2023-02-26T15:49:44;4.60;99.90
16523;DHT22;19889;52.546;13.348;2023-02-26T15:52:14;4.90;99.90
16523;DHT22;19889;52.546;13.348;2023-02-26T15:54:44;4.60;99.90
16523;DHT22;19889;52.546;13.348;2023-02-26T15:57:12;4.60;99.90
16523;DHT22;19889;52.546;13.348;2023-02-26T15:59:43;4.60;99.90
16523;DHT22;19889;52.546;13.348;2023-02-26T16:02:13;4.90;99.90
16523;DHT22;19889;52.546;13.348;2023-02-26T16:04:41;5.30;99.90
16523;DHT22;19889;52.546;13.348;2023-02-26T16:07:09;4.60;99.90
16523;DHT22;19889;52.546;13.348;2023-02-26T16:09:40;4.60;99.90
16523;DHT22;19889;52.546;13.348;2023-02-26T16:12:09;4.40;99.90